sensor_id;sensor_type;location;lat;lon;timestamp;P1;durP1;ratioP1;P2;durP2;ratioP2
4122;SDS011;2075;51.062;6.920;2023-04-26T00:02:18;7.87;;;3.33;;
4122;SDS011;2075;51.062;6.920;2023-04-26T00:05:04;6.70;;;3.53;;
4122;SDS011;2075;51.062;6.920;2023-04-26T00:07:54;9.90;;;3.20;;
4122;SDS011;2075;51.062;6.920;2023-04-26T00:10:39;6.40;;;2.70;;
4122;SDS011;2075;51.062;6.920;2023-04-26T00:13:25;7.13;;;2.77;;
4122;SDS011;2075;51.062;6.920;2023-04-26T00:16:12;7.80;;;2.60;;
4122;SDS011;2075;51.062;6.920;2023-04-26T00:18:57;5.10;;;3.03;;
4122;SDS011;2075;51.062;6.920;2023-04-26T00:21:42;6.30;;;3.30;;
4122;SDS011;2075;51.062;6.920;2023-04-26T00:24:29;6.60;;;3.27;;
4122;SDS011;2075;51.062;6.920;2023-04-26T00:27:15;3.30;;;2.70;;
4122;SDS011;2075;51.062;6.920;2023-04-26T00:30:00;8.80;;;3.70;;
4122;SDS011;2075;51.062;6.920;2023-04-26T00:32:46;10.80;;;3.67;;
4122;SDS011;2075;51.062;6.920;2023-04-26T00:35:31;13.07;;;4.17;;
4122;SDS011;2075;51.062;6.920;2023-04-26T00:38:16;10.90;;;4.03;;
4122;SDS011;2075;51.062;6.920;2023-04-26T00:41:03;6.43;;;3.67;;
4122;SDS011;2075;51.062;6.920;2023-04-26T00:43:48;7.70;;;3.50;;
4122;SDS011;2075;51.062;6.920;2023-04-26T00:46:34;5.40;;;3.10;;
4122;SDS011;2075;51.062;6.920;2023-04-26T00:49:20;10.53;;;3.40;;
4122;SDS011;2075;51.062;6.920;2023-04-26T00:52:08;5.90;;;3.20;;
4122;SDS011;2075;51.062;6.920;2023-04-26T00:54:54;8.60;;;4.47;;
4122;SDS011;2075;51.062;6.920;2023-04-26T00:57:41;5.40;;;3.47;;
4122;SDS011;2075;51.062;6.920;2023-04-26T01:00:28;5.53;;;4.40;;
4122;SDS011;2075;51.062;6.920;2023-04-26T01:03:14;6.30;;;4.27;;
4122;SDS011;2075;51.062;6.920;2023-04-26T01:05:59;5.20;;;3.70;;
4122;SDS011;2075;51.062;6.920;2023-04-26T01:08:45;12.73;;;4.40;;
4122;SDS011;2075;51.062;6.920;2023-04-26T01:11:30;9.60;;;4.20;;
4122;SDS011;2075;51.062;6.920;2023-04-26T01:14:18;9.53;;;3.97;;
4122;SDS011;2075;51.062;6.920;2023-04-26T01:17:04;12.70;;;3.93;;
4122;SDS011;2075;51.062;6.920;2023-04-26T01:19:50;9.07;;;3.60;;
4122;SDS011;2075;51.062;6.920;2023-04-26T01:22:37;11.43;;;4.07;;
4122;SDS011;2075;51.062;6.920;2023-04-26T01:25:23;7.43;;;3.77;;
4122;SDS011;2075;51.062;6.920;2023-04-26T01:28:08;9.77;;;3.60;;
4122;SDS011;2075;51.062;6.920;2023-04-26T01:30:53;12.07;;;3.60;;
4122;SDS011;2075;51.062;6.920;2023-04-26T01:33:40;11.53;;;3.57;;
4122;SDS011;2075;51.062;6.920;2023-04-26T01:36:25;4.53;;;3.33;;
4122;SDS011;2075;51.062;6.920;2023-04-26T01:39:12;7.33;;;3.93;;
4122;SDS011;2075;51.062;6.920;2023-04-26T01:41:57;7.67;;;3.97;;
4122;SDS011;2075;51.062;6.920;2023-04-26T01:44:43;6.37;;;3.80;;
4122;SDS011;2075;51.062;6.920;2023-04-26T01:47:28;8.53;;;3.87;;
4122;SDS011;2075;51.062;6.920;2023-04-26T01:50:13;13.00;;;4.93;;
4122;SDS011;2075;51.062;6.920;2023-04-26T01:52:59;9.90;;;5.30;;
4122;SDS011;2075;51.062;6.920;2023-04-26T01:55:45;8.60;;;4.33;;
4122;SDS011;2075;51.062;6.920;2023-04-26T01:58:31;11.27;;;5.43;;
4122;SDS011;2075;51.062;6.920;2023-04-26T02:01:16;5.97;;;4.30;;
4122;SDS011;2075;51.062;6.920;2023-04-26T02:04:01;6.87;;;4.03;;
4122;SDS011;2075;51.062;6.920;2023-04-26T02:06:48;12.57;;;4.87;;
4122;SDS011;2075;51.062;6.920;2023-04-26T02:09:33;7.23;;;4.30;;
4122;SDS011;2075;51.062;6.920;2023-04-26T02:12:20;13.73;;;4.20;;
4122;SDS011;2075;51.062;6.920;2023-04-26T02:15:06;9.17;;;4.80;;
4122;SDS011;2075;51.062;6.920;2023-04-26T02:17:52;11.20;;;4.63;;
4122;SDS011;2075;51.062;6.920;2023-04-26T02:20:39;8.90;;;4.70;;
4122;SDS011;2075;51.062;6.920;2023-04-26T02:23:26;9.50;;;4.70;;
4122;SDS011;2075;51.062;6.920;2023-04-26T02:26:12;8.43;;;4.37;;
4122;SDS011;2075;51.062;6.920;2023-04-26T02:29:02;14.27;;;4.70;;
4122;SDS011;2075;51.062;6.920;2023-04-26T02:31:47;9.77;;;4.97;;
4122;SDS011;2075;51.062;6.920;2023-04-26T02:34:32;8.40;;;5.10;;
4122;SDS011;2075;51.062;6.920;2023-04-26T02:37:18;10.60;;;4.77;;
4122;SDS011;2075;51.062;6.920;2023-04-26T02:40:06;13.23;;;5.43;;
4122;SDS011;2075;51.062;6.920;2023-04-26T02:42:53;8.50;;;4.93;;
4122;SDS011;2075;51.062;6.920;2023-04-26T02:45:41;10.37;;;5.67;;
4122;SDS011;2075;51.062;6.920;2023-04-26T02:48:29;10.60;;;6.10;;
4122;SDS011;2075;51.062;6.920;2023-04-26T02:51:14;9.80;;;6.10;;
4122;SDS011;2075;51.062;6.920;2023-04-26T02:54:00;15.60;;;6.30;;
4122;SDS011;2075;51.062;6.920;2023-04-26T02:56:45;12.07;;;6.00;;
4122;SDS011;2075;51.062;6.920;2023-04-26T02:59:31;14.10;;;6.50;;
4122;SDS011;2075;51.062;6.920;2023-04-26T03:02:18;11.00;;;6.00;;
4122;SDS011;2075;51.062;6.920;2023-04-26T03:05:04;12.33;;;6.63;;
4122;SDS011;2075;51.062;6.920;2023-04-26T03:07:50;13.33;;;5.37;;
4122;SDS011;2075;51.062;6.920;2023-04-26T03:10:36;12.40;;;6.43;;
4122;SDS011;2075;51.062;6.920;2023-04-26T03:13:22;12.50;;;6.70;;
4122;SDS011;2075;51.062;6.920;2023-04-26T03:16:07;11.00;;;6.30;;
4122;SDS011;2075;51.062;6.920;2023-04-26T03:18:54;10.27;;;6.43;;
4122;SDS011;2075;51.062;6.920;2023-04-26T03:21:39;10.13;;;5.83;;
4122;SDS011;2075;51.062;6.920;2023-04-26T03:24:25;10.43;;;6.03;;
4122;SDS011;2075;51.062;6.920;2023-04-26T03:27:10;14.60;;;5.90;;
4122;SDS011;2075;51.062;6.920;2023-04-26T03:29:56;10.17;;;5.87;;
4122;SDS011;2075;51.062;6.920;2023-04-26T03:32:42;8.63;;;5.17;;
4122;SDS011;2075;51.062;6.920;2023-04-26T03:35:28;8.40;;;6.20;;
4122;SDS011;2075;51.062;6.920;2023-04-26T03:38:14;20.90;;;6.30;;
4122;SDS011;2075;51.062;6.920;2023-04-26T03:41:00;17.30;;;6.90;;
4122;SDS011;2075;51.062;6.920;2023-04-26T03:43:46;16.30;;;7.10;;
4122;SDS011;2075;51.062;6.920;2023-04-26T03:46:31;13.47;;;6.80;;
4122;SDS011;2075;51.062;6.920;2023-04-26T03:49:17;12.10;;;6.80;;
4122;SDS011;2075;51.062;6.920;2023-04-26T03:52:04;10.80;;;6.70;;
4122;SDS011;2075;51.062;6.920;2023-04-26T03:54:49;17.43;;;8.20;;
4122;SDS011;2075;51.062;6.920;2023-04-26T03:57:35;14.43;;;6.50;;
4122;SDS011;2075;51.062;6.920;2023-04-26T04:00:21;15.10;;;7.67;;
4122;SDS011;2075;51.062;6.920;2023-04-26T04:03:06;12.43;;;7.47;;
4122;SDS011;2075;51.062;6.920;2023-04-26T04:05:52;14.53;;;6.90;;
4122;SDS011;2075;51.062;6.920;2023-04-26T04:08:38;20.43;;;6.90;;
4122;SDS011;2075;51.062;6.920;2023-04-26T04:11:24;12.00;;;6.37;;
4122;SDS011;2075;51.062;6.920;2023-04-26T04:14:09;10.57;;;6.10;;
4122;SDS011;2075;51.062;6.920;2023-04-26T04:16:58;9.93;;;6.93;;
4122;SDS011;2075;51.062;6.920;2023-04-26T04:19:44;16.33;;;6.97;;
4122;SDS011;2075;51.062;6.920;2023-04-26T04:22:30;15.83;;;6.60;;
4122;SDS011;2075;51.062;6.920;2023-04-26T04:25:17;11.77;;;6.80;;
4122;SDS011;2075;51.062;6.920;2023-04-26T04:28:07;12.70;;;6.67;;
4122;SDS011;2075;51.062;6.920;2023-04-26T04:30:56;14.13;;;7.23;;
4122;SDS011;2075;51.062;6.920;2023-04-26T04:33:43;12.40;;;6.30;;
4122;SDS011;2075;51.062;6.920;2023-04-26T04:36:29;9.90;;;6.40;;
4122;SDS011;2075;51.062;6.920;2023-04-26T04:39:15;11.07;;;6.90;;
4122;SDS011;2075;51.062;6.920;2023-04-26T04:42:03;13.33;;;6.73;;
4122;SDS011;2075;51.062;6.920;2023-04-26T04:44:49;19.43;;;7.60;;
4122;SDS011;2075;51.062;6.920;2023-04-26T04:47:35;14.73;;;8.07;;
4122;SDS011;2075;51.062;6.920;2023-04-26T04:50:22;13.80;;;7.60;;
4122;SDS011;2075;51.062;6.920;2023-04-26T04:53:07;14.90;;;6.70;;
4122;SDS011;2075;51.062;6.920;2023-04-26T04:55:55;10.60;;;6.70;;
4122;SDS011;2075;51.062;6.920;2023-04-26T04:58:42;13.40;;;6.43;;
4122;SDS011;2075;51.062;6.920;2023-04-26T05:01:28;12.13;;;6.40;;
4122;SDS011;2075;51.062;6.920;2023-04-26T05:04:15;19.80;;;6.90;;
4122;SDS011;2075;51.062;6.920;2023-04-26T05:07:01;19.43;;;7.43;;
4122;SDS011;2075;51.062;6.920;2023-04-26T05:09:47;17.53;;;6.70;;
4122;SDS011;2075;51.062;6.920;2023-04-26T05:12:32;13.93;;;8.43;;
4122;SDS011;2075;51.062;6.920;2023-04-26T05:15:21;16.20;;;6.20;;
4122;SDS011;2075;51.062;6.920;2023-04-26T05:18:06;19.47;;;6.93;;
4122;SDS011;2075;51.062;6.920;2023-04-26T05:20:52;11.77;;;6.10;;
4122;SDS011;2075;51.062;6.920;2023-04-26T05:23:37;12.47;;;5.90;;
4122;SDS011;2075;51.062;6.920;2023-04-26T05:26:23;14.20;;;5.93;;
4122;SDS011;2075;51.062;6.920;2023-04-26T05:29:27;11.87;;;5.50;;
4122;SDS011;2075;51.062;6.920;2023-04-26T05:32:24;17.03;;;6.47;;
4122;SDS011;2075;51.062;6.920;2023-04-26T05:35:20;14.50;;;6.00;;
4122;SDS011;2075;51.062;6.920;2023-04-26T05:38:06;8.07;;;5.57;;
4122;SDS011;2075;51.062;6.920;2023-04-26T05:40:53;8.80;;;5.13;;
4122;SDS011;2075;51.062;6.920;2023-04-26T05:43:38;8.97;;;5.63;;
4122;SDS011;2075;51.062;6.920;2023-04-26T05:46:24;11.60;;;9.10;;
4122;SDS011;2075;51.062;6.920;2023-04-26T05:49:11;11.40;;;6.47;;
4122;SDS011;2075;51.062;6.920;2023-04-26T05:51:57;11.53;;;5.80;;
4122;SDS011;2075;51.062;6.920;2023-04-26T05:54:45;11.17;;;5.63;;
4122;SDS011;2075;51.062;6.920;2023-04-26T05:57:30;8.70;;;5.97;;
4122;SDS011;2075;51.062;6.920;2023-04-26T06:00:16;16.40;;;6.80;;
4122;SDS011;2075;51.062;6.920;2023-04-26T06:03:05;12.67;;;7.30;;
4122;SDS011;2075;51.062;6.920;2023-04-26T06:05:52;19.67;;;7.03;;
4122;SDS011;2075;51.062;6.920;2023-04-26T06:08:39;11.50;;;7.83;;
4122;SDS011;2075;51.062;6.920;2023-04-26T06:11:28;11.90;;;7.40;;
4122;SDS011;2075;51.062;6.920;2023-04-26T06:14:13;9.73;;;7.20;;
4122;SDS011;2075;51.062;6.920;2023-04-26T06:16:59;10.80;;;7.57;;
4122;SDS011;2075;51.062;6.920;2023-04-26T06:19:46;13.90;;;9.67;;
4122;SDS011;2075;51.062;6.920;2023-04-26T06:22:33;12.03;;;6.97;;
4122;SDS011;2075;51.062;6.920;2023-04-26T06:25:18;10.60;;;6.83;;
4122;SDS011;2075;51.062;6.920;2023-04-26T06:28:04;10.53;;;6.30;;
4122;SDS011;2075;51.062;6.920;2023-04-26T06:30:49;12.73;;;7.70;;
4122;SDS011;2075;51.062;6.920;2023-04-26T06:33:35;17.73;;;7.67;;
4122;SDS011;2075;51.062;6.920;2023-04-26T06:36:20;16.47;;;7.50;;
4122;SDS011;2075;51.062;6.920;2023-04-26T06:39:07;11.73;;;7.90;;
4122;SDS011;2075;51.062;6.920;2023-04-26T06:41:55;15.77;;;8.23;;
4122;SDS011;2075;51.062;6.920;2023-04-26T06:44:57;13.77;;;8.30;;
4122;SDS011;2075;51.062;6.920;2023-04-26T06:47:42;15.27;;;8.83;;
4122;SDS011;2075;51.062;6.920;2023-04-26T06:50:28;10.27;;;8.17;;
4122;SDS011;2075;51.062;6.920;2023-04-26T06:53:13;12.20;;;7.97;;
4122;SDS011;2075;51.062;6.920;2023-04-26T06:56:00;13.93;;;8.73;;
4122;SDS011;2075;51.062;6.920;2023-04-26T06:58:56;11.47;;;8.37;;
4122;SDS011;2075;51.062;6.920;2023-04-26T07:01:44;11.67;;;7.77;;
4122;SDS011;2075;51.062;6.920;2023-04-26T07:04:29;22.10;;;8.27;;
4122;SDS011;2075;51.062;6.920;2023-04-26T07:07:15;15.83;;;8.40;;
4122;SDS011;2075;51.062;6.920;2023-04-26T07:10:00;14.93;;;9.57;;
4122;SDS011;2075;51.062;6.920;2023-04-26T07:12:48;16.70;;;8.40;;
4122;SDS011;2075;51.062;6.920;2023-04-26T07:15:34;14.07;;;8.30;;
4122;SDS011;2075;51.062;6.920;2023-04-26T07:18:20;12.33;;;8.20;;
4122;SDS011;2075;51.062;6.920;2023-04-26T07:21:05;15.60;;;7.87;;
4122;SDS011;2075;51.062;6.920;2023-04-26T07:23:52;16.10;;;7.83;;
4122;SDS011;2075;51.062;6.920;2023-04-26T07:26:38;15.37;;;8.40;;
4122;SDS011;2075;51.062;6.920;2023-04-26T07:29:25;19.03;;;9.00;;
4122;SDS011;2075;51.062;6.920;2023-04-26T07:32:10;18.87;;;8.00;;
4122;SDS011;2075;51.062;6.920;2023-04-26T07:34:56;12.63;;;8.20;;
4122;SDS011;2075;51.062;6.920;2023-04-26T07:37:42;14.57;;;7.73;;
4122;SDS011;2075;51.062;6.920;2023-04-26T07:40:28;13.10;;;8.13;;
4122;SDS011;2075;51.062;6.920;2023-04-26T07:43:14;12.73;;;8.20;;
4122;SDS011;2075;51.062;6.920;2023-04-26T07:46:00;12.00;;;6.90;;
4122;SDS011;2075;51.062;6.920;2023-04-26T07:48:46;13.07;;;6.80;;
4122;SDS011;2075;51.062;6.920;2023-04-26T07:51:32;13.80;;;6.80;;
4122;SDS011;2075;51.062;6.920;2023-04-26T07:54:19;11.40;;;6.40;;
4122;SDS011;2075;51.062;6.920;2023-04-26T07:57:05;14.43;;;7.50;;
4122;SDS011;2075;51.062;6.920;2023-04-26T07:59:50;17.13;;;7.00;;
4122;SDS011;2075;51.062;6.920;2023-04-26T08:02:37;11.63;;;6.97;;
4122;SDS011;2075;51.062;6.920;2023-04-26T08:05:23;13.47;;;7.53;;
4122;SDS011;2075;51.062;6.920;2023-04-26T08:08:09;12.63;;;7.07;;
4122;SDS011;2075;51.062;6.920;2023-04-26T08:10:55;12.53;;;6.33;;
4122;SDS011;2075;51.062;6.920;2023-04-26T08:13:41;15.10;;;6.80;;
4122;SDS011;2075;51.062;6.920;2023-04-26T08:16:27;11.00;;;6.90;;
4122;SDS011;2075;51.062;6.920;2023-04-26T08:19:15;12.87;;;7.10;;
4122;SDS011;2075;51.062;6.920;2023-04-26T08:22:00;14.07;;;7.57;;
4122;SDS011;2075;51.062;6.920;2023-04-26T08:24:46;11.40;;;6.67;;
4122;SDS011;2075;51.062;6.920;2023-04-26T08:27:33;14.07;;;8.20;;
4122;SDS011;2075;51.062;6.920;2023-04-26T08:30:19;13.27;;;7.90;;
4122;SDS011;2075;51.062;6.920;2023-04-26T08:33:07;13.70;;;7.70;;
4122;SDS011;2075;51.062;6.920;2023-04-26T08:35:55;12.90;;;7.80;;
4122;SDS011;2075;51.062;6.920;2023-04-26T08:38:43;17.30;;;7.27;;
4122;SDS011;2075;51.062;6.920;2023-04-26T08:41:30;10.23;;;5.97;;
4122;SDS011;2075;51.062;6.920;2023-04-26T08:44:21;13.23;;;6.13;;
4122;SDS011;2075;51.062;6.920;2023-04-26T08:47:09;20.60;;;6.70;;
4122;SDS011;2075;51.062;6.920;2023-04-26T08:50:00;19.27;;;12.33;;
4122;SDS011;2075;51.062;6.920;2023-04-26T08:52:49;14.47;;;6.50;;
4122;SDS011;2075;51.062;6.920;2023-04-26T08:55:36;17.03;;;5.30;;
4122;SDS011;2075;51.062;6.920;2023-04-26T08:58:22;10.90;;;5.70;;
4122;SDS011;2075;51.062;6.920;2023-04-26T09:01:08;9.73;;;6.40;;
4122;SDS011;2075;51.062;6.920;2023-04-26T09:04:00;15.60;;;7.00;;
4122;SDS011;2075;51.062;6.920;2023-04-26T09:06:46;12.03;;;6.27;;
4122;SDS011;2075;51.062;6.920;2023-04-26T09:09:37;8.27;;;5.23;;
4122;SDS011;2075;51.062;6.920;2023-04-26T09:12:26;9.17;;;7.37;;
4122;SDS011;2075;51.062;6.920;2023-04-26T09:15:12;14.47;;;5.80;;
4122;SDS011;2075;51.062;6.920;2023-04-26T09:18:14;11.97;;;4.30;;
4122;SDS011;2075;51.062;6.920;2023-04-26T09:21:01;9.27;;;4.43;;
4122;SDS011;2075;51.062;6.920;2023-04-26T09:23:58;7.67;;;4.80;;
4122;SDS011;2075;51.062;6.920;2023-04-26T09:26:50;8.10;;;3.93;;
4122;SDS011;2075;51.062;6.920;2023-04-26T09:29:58;12.77;;;4.67;;
4122;SDS011;2075;51.062;6.920;2023-04-26T09:32:49;7.43;;;4.23;;
4122;SDS011;2075;51.062;6.920;2023-04-26T09:35:36;8.73;;;4.60;;
4122;SDS011;2075;51.062;6.920;2023-04-26T09:38:24;9.03;;;4.63;;
4122;SDS011;2075;51.062;6.920;2023-04-26T09:41:09;16.97;;;5.10;;
4122;SDS011;2075;51.062;6.920;2023-04-26T09:43:56;9.43;;;4.97;;
4122;SDS011;2075;51.062;6.920;2023-04-26T09:46:42;12.60;;;4.40;;
4122;SDS011;2075;51.062;6.920;2023-04-26T09:49:43;7.07;;;3.80;;
4122;SDS011;2075;51.062;6.920;2023-04-26T09:52:31;7.23;;;3.70;;
4122;SDS011;2075;51.062;6.920;2023-04-26T09:55:27;8.93;;;4.90;;
4122;SDS011;2075;51.062;6.920;2023-04-26T09:58:13;6.57;;;3.97;;
4122;SDS011;2075;51.062;6.920;2023-04-26T10:01:00;8.83;;;4.13;;
4122;SDS011;2075;51.062;6.920;2023-04-26T10:03:47;6.67;;;4.07;;
4122;SDS011;2075;51.062;6.920;2023-04-26T10:06:34;10.00;;;4.47;;
4122;SDS011;2075;51.062;6.920;2023-04-26T10:09:19;5.33;;;3.33;;
4122;SDS011;2075;51.062;6.920;2023-04-26T10:12:05;9.13;;;3.43;;
4122;SDS011;2075;51.062;6.920;2023-04-26T10:14:51;8.70;;;4.10;;
4122;SDS011;2075;51.062;6.920;2023-04-26T10:17:38;5.67;;;3.53;;
4122;SDS011;2075;51.062;6.920;2023-04-26T10:20:26;6.70;;;4.00;;
4122;SDS011;2075;51.062;6.920;2023-04-26T10:23:15;4.93;;;3.43;;
4122;SDS011;2075;51.062;6.920;2023-04-26T10:26:04;10.03;;;4.40;;
4122;SDS011;2075;51.062;6.920;2023-04-26T10:28:53;6.27;;;4.83;;
4122;SDS011;2075;51.062;6.920;2023-04-26T10:40:54;5.90;;;4.20;;
4122;SDS011;2075;51.062;6.920;2023-04-26T10:43:40;11.50;;;4.47;;
4122;SDS011;2075;51.062;6.920;2023-04-26T10:46:33;5.70;;;4.60;;
4122;SDS011;2075;51.062;6.920;2023-04-26T10:49:20;6.20;;;3.80;;
4122;SDS011;2075;51.062;6.920;2023-04-26T10:52:11;9.97;;;4.47;;
4122;SDS011;2075;51.062;6.920;2023-04-26T10:54:59;8.65;;;3.80;;
4122;SDS011;2075;51.062;6.920;2023-04-26T10:57:46;5.40;;;3.60;;
4122;SDS011;2075;51.062;6.920;2023-04-26T11:00:32;4.23;;;2.60;;
4122;SDS011;2075;51.062;6.920;2023-04-26T11:03:22;5.17;;;2.23;;
4122;SDS011;2075;51.062;6.920;2023-04-26T11:06:08;6.00;;;2.90;;
4122;SDS011;2075;51.062;6.920;2023-04-26T11:08:56;7.13;;;2.80;;
4122;SDS011;2075;51.062;6.920;2023-04-26T11:11:52;4.30;;;2.30;;
4122;SDS011;2075;51.062;6.920;2023-04-26T11:14:40;6.03;;;3.10;;
4122;SDS011;2075;51.062;6.920;2023-04-26T11:17:25;5.07;;;2.67;;
4122;SDS011;2075;51.062;6.920;2023-04-26T11:20:14;7.57;;;3.20;;
4122;SDS011;2075;51.062;6.920;2023-04-26T11:23:00;4.37;;;3.03;;
4122;SDS011;2075;51.062;6.920;2023-04-26T11:25:46;7.32;;;3.05;;
4122;SDS011;2075;51.062;6.920;2023-04-26T11:28:34;9.03;;;2.90;;
4122;SDS011;2075;51.062;6.920;2023-04-26T11:31:21;11.33;;;2.50;;
4122;SDS011;2075;51.062;6.920;2023-04-26T11:34:08;7.20;;;2.87;;
4122;SDS011;2075;51.062;6.920;2023-04-26T11:36:54;5.87;;;3.10;;
4122;SDS011;2075;51.062;6.920;2023-04-26T11:39:39;6.53;;;3.30;;
4122;SDS011;2075;51.062;6.920;2023-04-26T11:42:24;6.70;;;3.92;;
4122;SDS011;2075;51.062;6.920;2023-04-26T11:45:13;7.20;;;3.63;;
4122;SDS011;2075;51.062;6.920;2023-04-26T11:48:00;12.00;;;4.33;;
4122;SDS011;2075;51.062;6.920;2023-04-26T11:50:47;9.20;;;3.90;;
4122;SDS011;2075;51.062;6.920;2023-04-26T11:53:35;11.43;;;4.47;;
4122;SDS011;2075;51.062;6.920;2023-04-26T11:56:21;5.27;;;4.77;;
4122;SDS011;2075;51.062;6.920;2023-04-26T11:59:06;6.43;;;3.30;;
4122;SDS011;2075;51.062;6.920;2023-04-26T12:01:55;4.63;;;3.80;;
4122;SDS011;2075;51.062;6.920;2023-04-26T12:04:41;3.80;;;2.77;;
4122;SDS011;2075;51.062;6.920;2023-04-26T12:07:31;5.20;;;3.30;;
4122;SDS011;2075;51.062;6.920;2023-04-26T12:10:19;8.27;;;3.33;;
4122;SDS011;2075;51.062;6.920;2023-04-26T12:13:06;7.50;;;3.80;;
4122;SDS011;2075;51.062;6.920;2023-04-26T12:15:52;4.72;;;3.42;;
4122;SDS011;2075;51.062;6.920;2023-04-26T12:18:39;10.93;;;4.43;;
4122;SDS011;2075;51.062;6.920;2023-04-26T12:21:25;9.13;;;3.90;;
4122;SDS011;2075;51.062;6.920;2023-04-26T12:24:21;8.00;;;4.20;;
4122;SDS011;2075;51.062;6.920;2023-04-26T12:27:07;14.47;;;4.27;;
4122;SDS011;2075;51.062;6.920;2023-04-26T12:29:53;10.70;;;4.13;;
4122;SDS011;2075;51.062;6.920;2023-04-26T12:32:38;9.80;;;3.63;;
4122;SDS011;2075;51.062;6.920;2023-04-26T12:35:26;7.30;;;3.80;;
4122;SDS011;2075;51.062;6.920;2023-04-26T12:38:12;6.97;;;3.50;;
4122;SDS011;2075;51.062;6.920;2023-04-26T12:40:58;4.50;;;3.53;;
4122;SDS011;2075;51.062;6.920;2023-04-26T12:43:44;10.40;;;5.27;;
4122;SDS011;2075;51.062;6.920;2023-04-26T12:46:29;9.13;;;4.53;;
4122;SDS011;2075;51.062;6.920;2023-04-26T12:49:15;19.70;;;8.07;;
4122;SDS011;2075;51.062;6.920;2023-04-26T12:52:02;16.90;;;7.38;;
4122;SDS011;2075;51.062;6.920;2023-04-26T12:54:48;13.63;;;5.53;;
4122;SDS011;2075;51.062;6.920;2023-04-26T12:57:34;5.77;;;3.80;;
4122;SDS011;2075;51.062;6.920;2023-04-26T13:00:20;10.57;;;3.43;;
4122;SDS011;2075;51.062;6.920;2023-04-26T13:03:06;6.23;;;3.37;;
4122;SDS011;2075;51.062;6.920;2023-04-26T13:05:52;6.20;;;3.42;;
4122;SDS011;2075;51.062;6.920;2023-04-26T13:08:40;7.63;;;3.53;;
4122;SDS011;2075;51.062;6.920;2023-04-26T13:11:25;6.80;;;3.70;;
4122;SDS011;2075;51.062;6.920;2023-04-26T13:14:11;5.27;;;3.20;;
4122;SDS011;2075;51.062;6.920;2023-04-26T13:16:56;7.57;;;3.70;;
4122;SDS011;2075;51.062;6.920;2023-04-26T13:19:41;12.23;;;3.00;;
4122;SDS011;2075;51.062;6.920;2023-04-26T13:22:32;5.20;;;3.40;;
4122;SDS011;2075;51.062;6.920;2023-04-26T13:25:20;8.27;;;3.73;;
4122;SDS011;2075;51.062;6.920;2023-04-26T13:28:06;7.27;;;3.90;;
4122;SDS011;2075;51.062;6.920;2023-04-26T13:30:52;7.20;;;3.87;;
4122;SDS011;2075;51.062;6.920;2023-04-26T13:33:38;6.57;;;4.20;;
4122;SDS011;2075;51.062;6.920;2023-04-26T13:36:24;11.90;;;4.43;;
4122;SDS011;2075;51.062;6.920;2023-04-26T13:39:11;5.27;;;3.87;;
4122;SDS011;2075;51.062;6.920;2023-04-26T13:41:58;9.20;;;3.20;;
4122;SDS011;2075;51.062;6.920;2023-04-26T13:44:44;7.80;;;3.78;;
4122;SDS011;2075;51.062;6.920;2023-04-26T13:47:30;8.77;;;3.40;;
4122;SDS011;2075;51.062;6.920;2023-04-26T13:50:16;4.37;;;3.47;;
4122;SDS011;2075;51.062;6.920;2023-04-26T13:53:02;7.43;;;3.33;;
4122;SDS011;2075;51.062;6.920;2023-04-26T13:55:48;7.07;;;3.20;;
4122;SDS011;2075;51.062;6.920;2023-04-26T13:58:35;7.60;;;3.30;;
4122;SDS011;2075;51.062;6.920;2023-04-26T14:01:20;5.17;;;3.33;;
4122;SDS011;2075;51.062;6.920;2023-04-26T14:04:10;8.43;;;3.80;;
4122;SDS011;2075;51.062;6.920;2023-04-26T14:06:55;13.23;;;3.70;;
4122;SDS011;2075;51.062;6.920;2023-04-26T14:09:40;5.80;;;3.70;;
4122;SDS011;2075;51.062;6.920;2023-04-26T14:12:27;7.47;;;3.33;;
4122;SDS011;2075;51.062;6.920;2023-04-26T14:15:15;7.30;;;3.63;;
4122;SDS011;2075;51.062;6.920;2023-04-26T14:18:00;11.13;;;3.90;;
4122;SDS011;2075;51.062;6.920;2023-04-26T14:20:47;6.83;;;3.43;;
4122;SDS011;2075;51.062;6.920;2023-04-26T14:23:33;7.93;;;4.03;;
4122;SDS011;2075;51.062;6.920;2023-04-26T14:26:18;4.40;;;3.93;;
4122;SDS011;2075;51.062;6.920;2023-04-26T14:29:08;12.53;;;4.33;;
4122;SDS011;2075;51.062;6.920;2023-04-26T14:31:56;7.63;;;3.37;;
4122;SDS011;2075;51.062;6.920;2023-04-26T14:34:42;4.83;;;3.63;;
4122;SDS011;2075;51.062;6.920;2023-04-26T14:37:27;5.20;;;3.50;;
4122;SDS011;2075;51.062;6.920;2023-04-26T14:40:13;9.50;;;3.30;;
4122;SDS011;2075;51.062;6.920;2023-04-26T14:42:59;5.17;;;3.40;;
4122;SDS011;2075;51.062;6.920;2023-04-26T14:45:45;7.47;;;3.60;;
4122;SDS011;2075;51.062;6.920;2023-04-26T14:48:32;10.80;;;3.97;;
4122;SDS011;2075;51.062;6.920;2023-04-26T14:51:17;7.93;;;4.20;;
4122;SDS011;2075;51.062;6.920;2023-04-26T14:54:03;7.30;;;4.47;;
4122;SDS011;2075;51.062;6.920;2023-04-26T14:56:49;5.70;;;4.00;;
4122;SDS011;2075;51.062;6.920;2023-04-26T14:59:35;6.40;;;3.90;;
4122;SDS011;2075;51.062;6.920;2023-04-26T15:02:21;7.87;;;4.33;;
4122;SDS011;2075;51.062;6.920;2023-04-26T15:05:08;5.50;;;3.33;;
4122;SDS011;2075;51.062;6.920;2023-04-26T15:07:54;6.53;;;3.90;;
4122;SDS011;2075;51.062;6.920;2023-04-26T15:10:40;8.00;;;4.13;;
4122;SDS011;2075;51.062;6.920;2023-04-26T15:13:26;7.73;;;4.60;;
4122;SDS011;2075;51.062;6.920;2023-04-26T15:16:12;5.87;;;3.53;;
4122;SDS011;2075;51.062;6.920;2023-04-26T15:18:59;8.63;;;4.00;;
4122;SDS011;2075;51.062;6.920;2023-04-26T15:21:46;8.13;;;3.57;;
4122;SDS011;2075;51.062;6.920;2023-04-26T15:24:34;4.37;;;3.97;;
4122;SDS011;2075;51.062;6.920;2023-04-26T15:27:21;4.00;;;3.60;;
4122;SDS011;2075;51.062;6.920;2023-04-26T15:30:08;8.43;;;4.80;;
4122;SDS011;2075;51.062;6.920;2023-04-26T15:32:54;8.00;;;3.60;;
4122;SDS011;2075;51.062;6.920;2023-04-26T15:35:43;10.73;;;4.27;;
4122;SDS011;2075;51.062;6.920;2023-04-26T15:38:29;8.90;;;3.97;;
4122;SDS011;2075;51.062;6.920;2023-04-26T15:41:15;9.83;;;4.17;;
4122;SDS011;2075;51.062;6.920;2023-04-26T15:44:00;8.17;;;3.97;;
4122;SDS011;2075;51.062;6.920;2023-04-26T15:46:46;9.73;;;3.50;;
4122;SDS011;2075;51.062;6.920;2023-04-26T15:49:32;5.90;;;3.70;;
4122;SDS011;2075;51.062;6.920;2023-04-26T15:52:18;6.23;;;3.77;;
4122;SDS011;2075;51.062;6.920;2023-04-26T15:55:05;5.20;;;3.33;;
4122;SDS011;2075;51.062;6.920;2023-04-26T15:57:52;5.47;;;3.33;;
4122;SDS011;2075;51.062;6.920;2023-04-26T16:00:37;4.33;;;2.70;;
4122;SDS011;2075;51.062;6.920;2023-04-26T16:03:23;4.93;;;3.50;;
4122;SDS011;2075;51.062;6.920;2023-04-26T16:06:10;12.57;;;4.00;;
4122;SDS011;2075;51.062;6.920;2023-04-26T16:08:55;6.57;;;3.97;;
4122;SDS011;2075;51.062;6.920;2023-04-26T16:11:42;10.33;;;3.70;;
4122;SDS011;2075;51.062;6.920;2023-04-26T16:14:28;4.33;;;3.67;;
4122;SDS011;2075;51.062;6.920;2023-04-26T16:17:14;4.50;;;4.10;;
4122;SDS011;2075;51.062;6.920;2023-04-26T16:20:00;5.83;;;4.40;;
4122;SDS011;2075;51.062;6.920;2023-04-26T16:22:47;4.20;;;3.50;;
4122;SDS011;2075;51.062;6.920;2023-04-26T16:25:33;10.40;;;3.80;;
4122;SDS011;2075;51.062;6.920;2023-04-26T16:28:20;4.67;;;3.63;;
4122;SDS011;2075;51.062;6.920;2023-04-26T16:31:06;6.50;;;3.63;;
4122;SDS011;2075;51.062;6.920;2023-04-26T16:33:52;7.77;;;3.67;;
4122;SDS011;2075;51.062;6.920;2023-04-26T16:36:37;8.50;;;3.87;;
4122;SDS011;2075;51.062;6.920;2023-04-26T16:39:22;15.90;;;4.33;;
4122;SDS011;2075;51.062;6.920;2023-04-26T16:42:09;9.00;;;4.20;;
4122;SDS011;2075;51.062;6.920;2023-04-26T16:44:56;8.90;;;4.60;;
4122;SDS011;2075;51.062;6.920;2023-04-26T16:47:41;8.13;;;3.57;;
4122;SDS011;2075;51.062;6.920;2023-04-26T16:50:27;10.00;;;3.23;;
4122;SDS011;2075;51.062;6.920;2023-04-26T16:53:12;6.23;;;3.47;;
4122;SDS011;2075;51.062;6.920;2023-04-26T16:55:58;6.47;;;3.97;;
4122;SDS011;2075;51.062;6.920;2023-04-26T16:58:44;10.63;;;3.80;;
4122;SDS011;2075;51.062;6.920;2023-04-26T17:01:32;4.77;;;3.60;;
4122;SDS011;2075;51.062;6.920;2023-04-26T17:04:17;6.83;;;3.90;;
4122;SDS011;2075;51.062;6.920;2023-04-26T17:07:03;10.13;;;4.40;;
4122;SDS011;2075;51.062;6.920;2023-04-26T17:09:50;4.67;;;3.80;;
4122;SDS011;2075;51.062;6.920;2023-04-26T17:12:38;7.67;;;4.37;;
4122;SDS011;2075;51.062;6.920;2023-04-26T17:15:25;13.70;;;4.73;;
4122;SDS011;2075;51.062;6.920;2023-04-26T17:18:11;11.67;;;4.40;;